sensor_id;sensor_type;location;lat;lon;timestamp;P1;durP1;ratioP1;P2;durP2;ratioP2
37529;SDS011;23374;52.758;6.872;2023-05-07T00:01:09;9.50;;;6.00;;
37529;SDS011;23374;52.758;6.872;2023-05-07T00:03:30;9.97;;;6.67;;
37529;SDS011;23374;52.758;6.872;2023-05-07T00:05:51;12.10;;;6.63;;
37529;SDS011;23374;52.758;6.872;2023-05-07T00:08:12;10.23;;;5.57;;
37529;SDS011;23374;52.758;6.872;2023-05-07T00:10:33;9.63;;;6.27;;
37529;SDS011;23374;52.758;6.872;2023-05-07T00:12:53;13.13;;;6.67;;
37529;SDS011;23374;52.758;6.872;2023-05-07T00:15:14;10.73;;;6.40;;
37529;SDS011;23374;52.758;6.872;2023-05-07T00:17:34;12.00;;;7.37;;
37529;SDS011;23374;52.758;6.872;2023-05-07T00:19:55;18.07;;;7.23;;
37529;SDS011;23374;52.758;6.872;2023-05-07T00:22:18;13.83;;;6.73;;
37529;SDS011;23374;52.758;6.872;2023-05-07T00:24:38;13.97;;;7.73;;
37529;SDS011;23374;52.758;6.872;2023-05-07T00:26:58;14.27;;;8.27;;
37529;SDS011;23374;52.758;6.872;2023-05-07T00:29:19;14.13;;;8.93;;
37529;SDS011;23374;52.758;6.872;2023-05-07T00:31:39;14.03;;;8.30;;
37529;SDS011;23374;52.758;6.872;2023-05-07T00:33:59;14.37;;;8.43;;
37529;SDS011;23374;52.758;6.872;2023-05-07T00:36:20;16.50;;;9.07;;
37529;SDS011;23374;52.758;6.872;2023-05-07T00:38:40;13.17;;;8.33;;
37529;SDS011;23374;52.758;6.872;2023-05-07T00:41:01;13.60;;;8.17;;
37529;SDS011;23374;52.758;6.872;2023-05-07T00:43:22;14.57;;;8.47;;
37529;SDS011;23374;52.758;6.872;2023-05-07T00:45:54;9.37;;;5.93;;
37529;SDS011;23374;52.758;6.872;2023-05-07T00:48:15;12.00;;;6.33;;
37529;SDS011;23374;52.758;6.872;2023-05-07T00:50:36;12.83;;;8.27;;
37529;SDS011;23374;52.758;6.872;2023-05-07T00:52:57;16.43;;;9.20;;
37529;SDS011;23374;52.758;6.872;2023-05-07T00:55:18;16.73;;;9.03;;
37529;SDS011;23374;52.758;6.872;2023-05-07T00:57:40;16.87;;;8.70;;
37529;SDS011;23374;52.758;6.872;2023-05-07T01:00:02;18.97;;;9.23;;
37529;SDS011;23374;52.758;6.872;2023-05-07T01:02:24;16.00;;;8.10;;
37529;SDS011;23374;52.758;6.872;2023-05-07T01:04:45;13.57;;;7.93;;
37529;SDS011;23374;52.758;6.872;2023-05-07T01:07:05;15.67;;;9.27;;
37529;SDS011;23374;52.758;6.872;2023-05-07T01:09:26;15.87;;;7.93;;
37529;SDS011;23374;52.758;6.872;2023-05-07T01:11:48;15.63;;;8.03;;
37529;SDS011;23374;52.758;6.872;2023-05-07T01:14:09;15.27;;;8.97;;
37529;SDS011;23374;52.758;6.872;2023-05-07T01:16:30;15.50;;;7.90;;
37529;SDS011;23374;52.758;6.872;2023-05-07T01:18:51;10.97;;;5.37;;
37529;SDS011;23374;52.758;6.872;2023-05-07T01:22:36;15.70;;;9.50;;
37529;SDS011;23374;52.758;6.872;2023-05-07T01:24:58;19.37;;;10.07;;
37529;SDS011;23374;52.758;6.872;2023-05-07T01:27:21;19.00;;;9.60;;
37529;SDS011;23374;52.758;6.872;2023-05-07T01:29:42;18.50;;;10.20;;
37529;SDS011;23374;52.758;6.872;2023-05-07T01:32:02;17.20;;;8.77;;
37529;SDS011;23374;52.758;6.872;2023-05-07T01:34:23;17.43;;;9.37;;
37529;SDS011;23374;52.758;6.872;2023-05-07T01:36:46;16.00;;;9.47;;
37529;SDS011;23374;52.758;6.872;2023-05-07T01:39:07;15.13;;;9.40;;
37529;SDS011;23374;52.758;6.872;2023-05-07T01:41:30;14.80;;;9.30;;
37529;SDS011;23374;52.758;6.872;2023-05-07T01:43:51;17.90;;;10.10;;
37529;SDS011;23374;52.758;6.872;2023-05-07T01:46:13;22.33;;;10.13;;
37529;SDS011;23374;52.758;6.872;2023-05-07T01:48:35;18.07;;;10.47;;
37529;SDS011;23374;52.758;6.872;2023-05-07T01:50:56;18.80;;;10.77;;
37529;SDS011;23374;52.758;6.872;2023-05-07T01:53:18;17.63;;;10.93;;
37529;SDS011;23374;52.758;6.872;2023-05-07T01:55:38;19.10;;;10.70;;
37529;SDS011;23374;52.758;6.872;2023-05-07T01:57:59;20.23;;;10.17;;
37529;SDS011;23374;52.758;6.872;2023-05-07T02:00:20;21.20;;;11.43;;
37529;SDS011;23374;52.758;6.872;2023-05-07T02:02:41;20.13;;;11.10;;
37529;SDS011;23374;52.758;6.872;2023-05-07T02:05:01;21.77;;;12.37;;
37529;SDS011;23374;52.758;6.872;2023-05-07T02:07:21;15.47;;;9.73;;
37529;SDS011;23374;52.758;6.872;2023-05-07T02:09:42;19.53;;;11.30;;
37529;SDS011;23374;52.758;6.872;2023-05-07T02:12:02;18.97;;;11.33;;
37529;SDS011;23374;52.758;6.872;2023-05-07T02:14:23;19.80;;;10.33;;
37529;SDS011;23374;52.758;6.872;2023-05-07T02:16:43;24.43;;;11.70;;
37529;SDS011;23374;52.758;6.872;2023-05-07T02:19:03;21.27;;;11.93;;
37529;SDS011;23374;52.758;6.872;2023-05-07T02:21:25;16.87;;;8.93;;
37529;SDS011;23374;52.758;6.872;2023-05-07T02:23:45;25.50;;;11.57;;
37529;SDS011;23374;52.758;6.872;2023-05-07T02:26:05;20.03;;;11.70;;
37529;SDS011;23374;52.758;6.872;2023-05-07T02:28:26;20.80;;;11.03;;
37529;SDS011;23374;52.758;6.872;2023-05-07T02:30:46;22.00;;;11.50;;
37529;SDS011;23374;52.758;6.872;2023-05-07T02:33:06;24.70;;;11.57;;
37529;SDS011;23374;52.758;6.872;2023-05-07T02:35:28;22.17;;;11.43;;
37529;SDS011;23374;52.758;6.872;2023-05-07T02:37:48;19.47;;;10.70;;
37529;SDS011;23374;52.758;6.872;2023-05-07T02:40:10;22.40;;;11.30;;
37529;SDS011;23374;52.758;6.872;2023-05-07T02:42:31;23.07;;;11.50;;
37529;SDS011;23374;52.758;6.872;2023-05-07T02:44:51;23.63;;;12.20;;
37529;SDS011;23374;52.758;6.872;2023-05-07T02:47:13;21.97;;;12.23;;
37529;SDS011;23374;52.758;6.872;2023-05-07T02:49:34;22.80;;;12.17;;
37529;SDS011;23374;52.758;6.872;2023-05-07T02:51:55;25.27;;;12.53;;
37529;SDS011;23374;52.758;6.872;2023-05-07T02:54:15;21.67;;;11.63;;
37529;SDS011;23374;52.758;6.872;2023-05-07T02:56:37;25.93;;;13.87;;
37529;SDS011;23374;52.758;6.872;2023-05-07T02:58:57;24.50;;;12.80;;
37529;SDS011;23374;52.758;6.872;2023-05-07T03:01:18;26.23;;;13.70;;
37529;SDS011;23374;52.758;6.872;2023-05-07T03:03:38;22.10;;;13.43;;
37529;SDS011;23374;52.758;6.872;2023-05-07T03:05:59;26.17;;;13.17;;
37529;SDS011;23374;52.758;6.872;2023-05-07T03:08:19;26.93;;;13.90;;
37529;SDS011;23374;52.758;6.872;2023-05-07T03:12:22;22.43;;;13.37;;
37529;SDS011;23374;52.758;6.872;2023-05-07T03:14:42;24.07;;;13.90;;
37529;SDS011;23374;52.758;6.872;2023-05-07T03:17:03;21.10;;;11.50;;
37529;SDS011;23374;52.758;6.872;2023-05-07T03:19:23;24.13;;;12.57;;
37529;SDS011;23374;52.758;6.872;2023-05-07T03:21:43;31.33;;;14.17;;
37529;SDS011;23374;52.758;6.872;2023-05-07T03:24:03;20.33;;;10.47;;
37529;SDS011;23374;52.758;6.872;2023-05-07T03:26:24;24.27;;;13.17;;
37529;SDS011;23374;52.758;6.872;2023-05-07T03:28:44;25.20;;;12.83;;
37529;SDS011;23374;52.758;6.872;2023-05-07T03:31:05;28.43;;;14.30;;
37529;SDS011;23374;52.758;6.872;2023-05-07T03:33:25;22.97;;;12.87;;
37529;SDS011;23374;52.758;6.872;2023-05-07T03:35:47;23.97;;;13.13;;
37529;SDS011;23374;52.758;6.872;2023-05-07T03:38:07;26.80;;;12.73;;
37529;SDS011;23374;52.758;6.872;2023-05-07T03:40:28;24.93;;;12.03;;
37529;SDS011;23374;52.758;6.872;2023-05-07T03:42:48;25.30;;;13.40;;
37529;SDS011;23374;52.758;6.872;2023-05-07T03:45:08;26.30;;;13.00;;
37529;SDS011;23374;52.758;6.872;2023-05-07T03:47:29;17.03;;;10.70;;
37529;SDS011;23374;52.758;6.872;2023-05-07T03:49:50;28.73;;;14.27;;
37529;SDS011;23374;52.758;6.872;2023-05-07T03:52:12;25.87;;;13.17;;
37529;SDS011;23374;52.758;6.872;2023-05-07T03:54:33;24.77;;;12.47;;
37529;SDS011;23374;52.758;6.872;2023-05-07T03:56:53;23.90;;;11.27;;
37529;SDS011;23374;52.758;6.872;2023-05-07T03:59:13;26.57;;;13.03;;
37529;SDS011;23374;52.758;6.872;2023-05-07T04:01:34;25.97;;;14.00;;
37529;SDS011;23374;52.758;6.872;2023-05-07T04:03:54;22.27;;;11.53;;
37529;SDS011;23374;52.758;6.872;2023-05-07T04:06:16;21.70;;;12.53;;
37529;SDS011;23374;52.758;6.872;2023-05-07T04:08:39;21.97;;;12.67;;
37529;SDS011;23374;52.758;6.872;2023-05-07T04:11:00;22.23;;;12.37;;
37529;SDS011;23374;52.758;6.872;2023-05-07T04:13:21;27.97;;;13.70;;
37529;SDS011;23374;52.758;6.872;2023-05-07T04:15:41;21.50;;;12.47;;
37529;SDS011;23374;52.758;6.872;2023-05-07T04:18:02;21.53;;;11.97;;
37529;SDS011;23374;52.758;6.872;2023-05-07T04:20:23;25.43;;;12.23;;
37529;SDS011;23374;52.758;6.872;2023-05-07T04:22:43;8.07;;;4.90;;
37529;SDS011;23374;52.758;6.872;2023-05-07T04:25:04;23.03;;;12.37;;
37529;SDS011;23374;52.758;6.872;2023-05-07T04:27:26;21.60;;;12.10;;
37529;SDS011;23374;52.758;6.872;2023-05-07T04:29:47;20.20;;;11.70;;
37529;SDS011;23374;52.758;6.872;2023-05-07T04:32:09;21.83;;;12.00;;
37529;SDS011;23374;52.758;6.872;2023-05-07T04:34:29;22.83;;;12.40;;
37529;SDS011;23374;52.758;6.872;2023-05-07T04:36:49;22.50;;;12.40;;
37529;SDS011;23374;52.758;6.872;2023-05-07T04:39:10;24.57;;;13.07;;
37529;SDS011;23374;52.758;6.872;2023-05-07T04:41:30;20.73;;;10.53;;
37529;SDS011;23374;52.758;6.872;2023-05-07T04:43:50;24.10;;;13.13;;
37529;SDS011;23374;52.758;6.872;2023-05-07T04:46:11;21.37;;;12.00;;
37529;SDS011;23374;52.758;6.872;2023-05-07T04:48:31;22.00;;;12.17;;
37529;SDS011;23374;52.758;6.872;2023-05-07T04:50:52;21.30;;;11.37;;
37529;SDS011;23374;52.758;6.872;2023-05-07T04:53:12;20.30;;;12.20;;
37529;SDS011;23374;52.758;6.872;2023-05-07T04:55:33;24.70;;;12.30;;
37529;SDS011;23374;52.758;6.872;2023-05-07T04:57:53;20.83;;;10.37;;
37529;SDS011;23374;52.758;6.872;2023-05-07T05:00:14;22.57;;;11.30;;
37529;SDS011;23374;52.758;6.872;2023-05-07T05:02:36;19.77;;;10.63;;
37529;SDS011;23374;52.758;6.872;2023-05-07T05:04:56;23.57;;;10.80;;
37529;SDS011;23374;52.758;6.872;2023-05-07T05:07:16;21.77;;;11.57;;
37529;SDS011;23374;52.758;6.872;2023-05-07T05:09:37;15.33;;;8.90;;
37529;SDS011;23374;52.758;6.872;2023-05-07T05:11:57;21.23;;;11.37;;
37529;SDS011;23374;52.758;6.872;2023-05-07T05:14:18;21.00;;;12.00;;
37529;SDS011;23374;52.758;6.872;2023-05-07T05:16:39;25.53;;;12.10;;
37529;SDS011;23374;52.758;6.872;2023-05-07T05:19:01;24.20;;;12.80;;
37529;SDS011;23374;52.758;6.872;2023-05-07T05:21:22;20.37;;;10.83;;
37529;SDS011;23374;52.758;6.872;2023-05-07T05:23:43;18.93;;;10.83;;
37529;SDS011;23374;52.758;6.872;2023-05-07T05:26:03;8.13;;;4.13;;
37529;SDS011;23374;52.758;6.872;2023-05-07T05:28:24;14.50;;;8.33;;
37529;SDS011;23374;52.758;6.872;2023-05-07T05:30:44;20.53;;;12.13;;
37529;SDS011;23374;52.758;6.872;2023-05-07T05:33:05;20.90;;;10.30;;
37529;SDS011;23374;52.758;6.872;2023-05-07T05:35:25;23.00;;;12.70;;
37529;SDS011;23374;52.758;6.872;2023-05-07T05:37:46;22.90;;;13.40;;
37529;SDS011;23374;52.758;6.872;2023-05-07T05:40:08;18.43;;;10.20;;
37529;SDS011;23374;52.758;6.872;2023-05-07T05:42:29;21.17;;;10.83;;
37529;SDS011;23374;52.758;6.872;2023-05-07T05:44:49;16.43;;;9.37;;
37529;SDS011;23374;52.758;6.872;2023-05-07T05:47:09;19.60;;;11.30;;
37529;SDS011;23374;52.758;6.872;2023-05-07T05:49:30;22.33;;;11.93;;
37529;SDS011;23374;52.758;6.872;2023-05-07T05:51:50;25.67;;;12.27;;
37529;SDS011;23374;52.758;6.872;2023-05-07T05:54:10;19.27;;;11.27;;
37529;SDS011;23374;52.758;6.872;2023-05-07T05:56:31;22.60;;;12.57;;
37529;SDS011;23374;52.758;6.872;2023-05-07T05:58:52;25.30;;;12.83;;
37529;SDS011;23374;52.758;6.872;2023-05-07T06:01:12;23.70;;;11.83;;
37529;SDS011;23374;52.758;6.872;2023-05-07T06:03:33;21.60;;;12.83;;
37529;SDS011;23374;52.758;6.872;2023-05-07T06:05:53;20.10;;;12.00;;
37529;SDS011;23374;52.758;6.872;2023-05-07T06:08:13;23.97;;;12.23;;
37529;SDS011;23374;52.758;6.872;2023-05-07T06:10:35;25.00;;;12.90;;
37529;SDS011;23374;52.758;6.872;2023-05-07T06:12:56;18.50;;;10.50;;
37529;SDS011;23374;52.758;6.872;2023-05-07T06:15:17;17.23;;;8.90;;
37529;SDS011;23374;52.758;6.872;2023-05-07T06:17:38;23.47;;;12.30;;
37529;SDS011;23374;52.758;6.872;2023-05-07T06:19:58;19.30;;;11.63;;
37529;SDS011;23374;52.758;6.872;2023-05-07T06:22:18;22.07;;;12.00;;
37529;SDS011;23374;52.758;6.872;2023-05-07T06:24:39;25.40;;;13.97;;
37529;SDS011;23374;52.758;6.872;2023-05-07T06:27:00;23.30;;;13.30;;
37529;SDS011;23374;52.758;6.872;2023-05-07T06:29:20;24.40;;;12.13;;
37529;SDS011;23374;52.758;6.872;2023-05-07T06:31:41;23.20;;;10.57;;
37529;SDS011;23374;52.758;6.872;2023-05-07T06:34:01;22.87;;;11.47;;
37529;SDS011;23374;52.758;6.872;2023-05-07T06:36:22;21.57;;;10.00;;
37529;SDS011;23374;52.758;6.872;2023-05-07T06:38:42;22.87;;;11.07;;
37529;SDS011;23374;52.758;6.872;2023-05-07T06:41:03;24.77;;;13.10;;
37529;SDS011;23374;52.758;6.872;2023-05-07T06:43:25;25.60;;;12.57;;
37529;SDS011;23374;52.758;6.872;2023-05-07T06:45:45;27.00;;;14.17;;
37529;SDS011;23374;52.758;6.872;2023-05-07T06:48:06;25.30;;;13.77;;
37529;SDS011;23374;52.758;6.872;2023-05-07T06:50:26;23.67;;;13.03;;
37529;SDS011;23374;52.758;6.872;2023-05-07T06:52:47;26.10;;;13.83;;
37529;SDS011;23374;52.758;6.872;2023-05-07T06:55:08;24.67;;;14.03;;
37529;SDS011;23374;52.758;6.872;2023-05-07T06:57:28;25.37;;;12.67;;
37529;SDS011;23374;52.758;6.872;2023-05-07T06:59:49;26.07;;;13.33;;
37529;SDS011;23374;52.758;6.872;2023-05-07T07:02:09;5.73;;;3.60;;
37529;SDS011;23374;52.758;6.872;2023-05-07T07:04:30;26.00;;;13.40;;
37529;SDS011;23374;52.758;6.872;2023-05-07T07:06:53;21.47;;;12.17;;
37529;SDS011;23374;52.758;6.872;2023-05-07T07:09:14;25.50;;;12.70;;
37529;SDS011;23374;52.758;6.872;2023-05-07T07:11:35;27.13;;;14.13;;
37529;SDS011;23374;52.758;6.872;2023-05-07T07:13:55;22.47;;;11.73;;
37529;SDS011;23374;52.758;6.872;2023-05-07T07:16:16;27.20;;;13.30;;
37529;SDS011;23374;52.758;6.872;2023-05-07T07:18:37;26.17;;;14.07;;
37529;SDS011;23374;52.758;6.872;2023-05-07T07:20:58;27.03;;;13.97;;
37529;SDS011;23374;52.758;6.872;2023-05-07T07:23:18;20.03;;;10.13;;
37529;SDS011;23374;52.758;6.872;2023-05-07T07:25:39;27.50;;;13.73;;
37529;SDS011;23374;52.758;6.872;2023-05-07T07:28:00;23.60;;;12.23;;
37529;SDS011;23374;52.758;6.872;2023-05-07T07:30:20;22.80;;;12.67;;
37529;SDS011;23374;52.758;6.872;2023-05-07T07:32:41;26.13;;;12.77;;
37529;SDS011;23374;52.758;6.872;2023-05-07T07:35:02;30.47;;;14.47;;
37529;SDS011;23374;52.758;6.872;2023-05-07T07:37:23;22.23;;;11.90;;
37529;SDS011;23374;52.758;6.872;2023-05-07T07:39:45;20.47;;;10.97;;
37529;SDS011;23374;52.758;6.872;2023-05-07T07:42:05;25.40;;;13.93;;
37529;SDS011;23374;52.758;6.872;2023-05-07T07:44:25;20.53;;;11.17;;
37529;SDS011;23374;52.758;6.872;2023-05-07T07:46:47;24.97;;;13.07;;
37529;SDS011;23374;52.758;6.872;2023-05-07T07:49:07;24.70;;;12.57;;
37529;SDS011;23374;52.758;6.872;2023-05-07T07:51:27;25.93;;;14.50;;
37529;SDS011;23374;52.758;6.872;2023-05-07T07:53:48;24.37;;;12.67;;
37529;SDS011;23374;52.758;6.872;2023-05-07T07:56:09;25.33;;;12.63;;
37529;SDS011;23374;52.758;6.872;2023-05-07T07:58:29;27.87;;;14.57;;
37529;SDS011;23374;52.758;6.872;2023-05-07T08:00:49;22.63;;;12.30;;
37529;SDS011;23374;52.758;6.872;2023-05-07T08:03:10;25.23;;;13.90;;
37529;SDS011;23374;52.758;6.872;2023-05-07T08:05:30;23.70;;;13.27;;
37529;SDS011;23374;52.758;6.872;2023-05-07T08:07:50;23.10;;;13.13;;
37529;SDS011;23374;52.758;6.872;2023-05-07T08:10:12;28.67;;;13.87;;
37529;SDS011;23374;52.758;6.872;2023-05-07T08:12:32;24.20;;;13.13;;
37529;SDS011;23374;52.758;6.872;2023-05-07T08:14:53;26.03;;;14.37;;
37529;SDS011;23374;52.758;6.872;2023-05-07T08:17:13;24.60;;;13.63;;
37529;SDS011;23374;52.758;6.872;2023-05-07T08:19:35;11.47;;;6.27;;
37529;SDS011;23374;52.758;6.872;2023-05-07T08:21:55;27.20;;;13.80;;
37529;SDS011;23374;52.758;6.872;2023-05-07T08:24:16;24.30;;;13.97;;
37529;SDS011;23374;52.758;6.872;2023-05-07T08:26:37;23.23;;;13.70;;
37529;SDS011;23374;52.758;6.872;2023-05-07T08:28:59;23.00;;;12.93;;
37529;SDS011;23374;52.758;6.872;2023-05-07T08:31:19;21.07;;;12.30;;
37529;SDS011;23374;52.758;6.872;2023-05-07T08:33:40;23.50;;;13.37;;
37529;SDS011;23374;52.758;6.872;2023-05-07T08:36:00;16.40;;;8.27;;
37529;SDS011;23374;52.758;6.872;2023-05-07T08:38:20;23.60;;;12.63;;
37529;SDS011;23374;52.758;6.872;2023-05-07T08:40:40;24.43;;;12.70;;
37529;SDS011;23374;52.758;6.872;2023-05-07T08:43:01;26.03;;;13.07;;
37529;SDS011;23374;52.758;6.872;2023-05-07T08:45:22;16.27;;;9.27;;
37529;SDS011;23374;52.758;6.872;2023-05-07T08:47:44;18.57;;;10.60;;
37529;SDS011;23374;52.758;6.872;2023-05-07T08:50:07;22.53;;;13.40;;
37529;SDS011;23374;52.758;6.872;2023-05-07T08:52:28;25.93;;;13.07;;
37529;SDS011;23374;52.758;6.872;2023-05-07T08:54:48;23.27;;;12.47;;
37529;SDS011;23374;52.758;6.872;2023-05-07T08:57:09;20.73;;;12.07;;
37529;SDS011;23374;52.758;6.872;2023-05-07T08:59:29;19.67;;;11.33;;
37529;SDS011;23374;52.758;6.872;2023-05-07T09:01:50;12.93;;;7.30;;
37529;SDS011;23374;52.758;6.872;2023-05-07T09:04:10;22.23;;;12.27;;
37529;SDS011;23374;52.758;6.872;2023-05-07T09:06:33;5.63;;;3.67;;
37529;SDS011;23374;52.758;6.872;2023-05-07T09:08:54;21.20;;;11.80;;
37529;SDS011;23374;52.758;6.872;2023-05-07T09:11:15;20.40;;;11.20;;
37529;SDS011;23374;52.758;6.872;2023-05-07T09:13:36;20.77;;;11.67;;
37529;SDS011;23374;52.758;6.872;2023-05-07T09:15:57;21.87;;;11.97;;
37529;SDS011;23374;52.758;6.872;2023-05-07T09:18:26;19.83;;;11.80;;
37529;SDS011;23374;52.758;6.872;2023-05-07T09:20:46;17.73;;;10.77;;
37529;SDS011;23374;52.758;6.872;2023-05-07T09:23:07;19.07;;;10.47;;
37529;SDS011;23374;52.758;6.872;2023-05-07T09:25:31;21.57;;;11.40;;
37529;SDS011;23374;52.758;6.872;2023-05-07T09:27:53;21.37;;;11.97;;
37529;SDS011;23374;52.758;6.872;2023-05-07T09:30:13;17.47;;;10.10;;
37529;SDS011;23374;52.758;6.872;2023-05-07T09:32:36;19.50;;;10.30;;
37529;SDS011;23374;52.758;6.872;2023-05-07T09:35:00;16.87;;;9.90;;
37529;SDS011;23374;52.758;6.872;2023-05-07T09:37:21;18.10;;;11.13;;
37529;SDS011;23374;52.758;6.872;2023-05-07T09:39:42;20.60;;;11.33;;
37529;SDS011;23374;52.758;6.872;2023-05-07T09:42:07;19.67;;;11.30;;
37529;SDS011;23374;52.758;6.872;2023-05-07T09:44:28;17.77;;;9.70;;
37529;SDS011;23374;52.758;6.872;2023-05-07T09:46:53;19.63;;;11.17;;
37529;SDS011;23374;52.758;6.872;2023-05-07T09:49:23;17.50;;;10.73;;
37529;SDS011;23374;52.758;6.872;2023-05-07T09:51:51;18.47;;;11.17;;
37529;SDS011;23374;52.758;6.872;2023-05-07T09:54:12;16.37;;;10.77;;
37529;SDS011;23374;52.758;6.872;2023-05-07T09:56:33;14.63;;;9.37;;
37529;SDS011;23374;52.758;6.872;2023-05-07T09:58:59;18.13;;;10.27;;
37529;SDS011;23374;52.758;6.872;2023-05-07T10:01:20;18.33;;;11.30;;
37529;SDS011;23374;52.758;6.872;2023-05-07T10:03:43;19.00;;;10.10;;
37529;SDS011;23374;52.758;6.872;2023-05-07T10:06:05;14.70;;;9.43;;
37529;SDS011;23374;52.758;6.872;2023-05-07T10:08:26;18.90;;;10.00;;
37529;SDS011;23374;52.758;6.872;2023-05-07T10:10:48;15.90;;;10.90;;
37529;SDS011;23374;52.758;6.872;2023-05-07T10:13:10;19.23;;;11.43;;
37529;SDS011;23374;52.758;6.872;2023-05-07T10:15:31;18.20;;;10.37;;
37529;SDS011;23374;52.758;6.872;2023-05-07T10:17:52;15.77;;;9.17;;
37529;SDS011;23374;52.758;6.872;2023-05-07T10:20:13;16.93;;;10.30;;
37529;SDS011;23374;52.758;6.872;2023-05-07T10:22:47;16.10;;;9.33;;
37529;SDS011;23374;52.758;6.872;2023-05-07T10:25:25;16.00;;;10.20;;
37529;SDS011;23374;52.758;6.872;2023-05-07T10:27:50;17.73;;;10.37;;
37529;SDS011;23374;52.758;6.872;2023-05-07T10:30:33;15.40;;;9.73;;
37529;SDS011;23374;52.758;6.872;2023-05-07T10:33:23;17.27;;;10.60;;
37529;SDS011;23374;52.758;6.872;2023-05-07T10:35:45;17.47;;;10.63;;
37529;SDS011;23374;52.758;6.872;2023-05-07T10:38:07;17.83;;;9.83;;
37529;SDS011;23374;52.758;6.872;2023-05-07T10:40:30;17.67;;;9.37;;
37529;SDS011;23374;52.758;6.872;2023-05-07T10:42:58;17.03;;;10.20;;
37529;SDS011;23374;52.758;6.872;2023-05-07T10:45:24;13.90;;;8.77;;
37529;SDS011;23374;52.758;6.872;2023-05-07T10:48:31;14.93;;;9.40;;
37529;SDS011;23374;52.758;6.872;2023-05-07T10:51:31;17.47;;;9.00;;
37529;SDS011;23374;52.758;6.872;2023-05-07T10:56:30;20.23;;;10.53;;
37529;SDS011;23374;52.758;6.872;2023-05-07T10:58:51;14.63;;;9.23;;
37529;SDS011;23374;52.758;6.872;2023-05-07T11:01:11;16.57;;;9.97;;
37529;SDS011;23374;52.758;6.872;2023-05-07T11:03:32;15.63;;;9.30;;
37529;SDS011;23374;52.758;6.872;2023-05-07T11:06:15;12.37;;;8.50;;
37529;SDS011;23374;52.758;6.872;2023-05-07T11:12:08;14.77;;;8.57;;
37529;SDS011;23374;52.758;6.872;2023-05-07T11:14:44;13.87;;;7.70;;
37529;SDS011;23374;52.758;6.872;2023-05-07T11:17:05;15.37;;;9.80;;
37529;SDS011;23374;52.758;6.872;2023-05-07T11:19:52;17.77;;;10.23;;
37529;SDS011;23374;52.758;6.872;2023-05-07T11:29:01;15.17;;;9.67;;
37529;SDS011;23374;52.758;6.872;2023-05-07T11:31:26;16.10;;;9.60;;
37529;SDS011;23374;52.758;6.872;2023-05-07T11:33:48;16.07;;;9.17;;
37529;SDS011;23374;52.758;6.872;2023-05-07T11:36:09;17.07;;;10.33;;
37529;SDS011;23374;52.758;6.872;2023-05-07T11:38:30;15.57;;;10.13;;
37529;SDS011;23374;52.758;6.872;2023-05-07T11:40:59;13.60;;;9.03;;
37529;SDS011;23374;52.758;6.872;2023-05-07T11:43:24;15.50;;;9.83;;
37529;SDS011;23374;52.758;6.872;2023-05-07T11:45:45;15.37;;;9.23;;
37529;SDS011;23374;52.758;6.872;2023-05-07T11:48:15;15.53;;;9.93;;
37529;SDS011;23374;52.758;6.872;2023-05-07T11:50:36;14.37;;;8.97;;
37529;SDS011;23374;52.758;6.872;2023-05-07T11:53:13;14.53;;;9.70;;
37529;SDS011;23374;52.758;6.872;2023-05-07T11:55:34;14.97;;;10.50;;
37529;SDS011;23374;52.758;6.872;2023-05-07T11:57:54;17.40;;;10.23;;
37529;SDS011;23374;52.758;6.872;2023-05-07T12:00:15;16.27;;;9.67;;
37529;SDS011;23374;52.758;6.872;2023-05-07T12:02:36;15.57;;;9.40;;
37529;SDS011;23374;52.758;6.872;2023-05-07T12:04:57;14.37;;;9.80;;
37529;SDS011;23374;52.758;6.872;2023-05-07T12:07:20;16.50;;;9.13;;
37529;SDS011;23374;52.758;6.872;2023-05-07T12:09:41;14.43;;;9.50;;
37529;SDS011;23374;52.758;6.872;2023-05-07T12:12:05;15.43;;;9.10;;
37529;SDS011;23374;52.758;6.872;2023-05-07T12:14:28;13.60;;;7.87;;
37529;SDS011;23374;52.758;6.872;2023-05-07T12:16:48;16.10;;;9.87;;
37529;SDS011;23374;52.758;6.872;2023-05-07T12:19:09;18.13;;;10.20;;
37529;SDS011;23374;52.758;6.872;2023-05-07T12:21:32;15.57;;;9.40;;
37529;SDS011;23374;52.758;6.872;2023-05-07T12:23:53;15.30;;;9.97;;
37529;SDS011;23374;52.758;6.872;2023-05-07T12:26:14;15.00;;;10.77;;
37529;SDS011;23374;52.758;6.872;2023-05-07T12:28:38;12.30;;;8.80;;
37529;SDS011;23374;52.758;6.872;2023-05-07T12:30:59;15.83;;;9.17;;
37529;SDS011;23374;52.758;6.872;2023-05-07T12:33:25;14.97;;;10.20;;
37529;SDS011;23374;52.758;6.872;2023-05-07T12:35:47;15.60;;;9.43;;
37529;SDS011;23374;52.758;6.872;2023-05-07T12:38:12;13.23;;;8.67;;
37529;SDS011;23374;52.758;6.872;2023-05-07T12:40:47;11.60;;;6.50;;
37529;SDS011;23374;52.758;6.872;2023-05-07T12:43:18;13.93;;;8.93;;
37529;SDS011;23374;52.758;6.872;2023-05-07T12:45:49;12.67;;;8.13;;
37529;SDS011;23374;52.758;6.872;2023-05-07T12:48:10;15.03;;;8.87;;
37529;SDS011;23374;52.758;6.872;2023-05-07T12:50:31;15.03;;;8.37;;
37529;SDS011;23374;52.758;6.872;2023-05-07T12:52:53;14.80;;;9.23;;
37529;SDS011;23374;52.758;6.872;2023-05-07T12:55:15;13.13;;;8.57;;
37529;SDS011;23374;52.758;6.872;2023-05-07T12:57:40;13.67;;;7.20;;
37529;SDS011;23374;52.758;6.872;2023-05-07T13:00:02;14.13;;;9.47;;
37529;SDS011;23374;52.758;6.872;2023-05-07T13:02:32;13.93;;;9.30;;
37529;SDS011;23374;52.758;6.872;2023-05-07T13:05:04;11.47;;;7.80;;
37529;SDS011;23374;52.758;6.872;2023-05-07T13:07:25;11.30;;;8.27;;
37529;SDS011;23374;52.758;6.872;2023-05-07T13:09:46;10.90;;;8.07;;
37529;SDS011;23374;52.758;6.872;2023-05-07T13:12:08;13.27;;;8.83;;
37529;SDS011;23374;52.758;6.872;2023-05-07T13:14:28;9.80;;;6.73;;
37529;SDS011;23374;52.758;6.872;2023-05-07T13:16:49;12.93;;;8.20;;
37529;SDS011;23374;52.758;6.872;2023-05-07T13:19:09;10.07;;;8.07;;
37529;SDS011;23374;52.758;6.872;2023-05-07T13:21:30;12.47;;;8.03;;
37529;SDS011;23374;52.758;6.872;2023-05-07T13:23:54;11.90;;;8.53;;
37529;SDS011;23374;52.758;6.872;2023-05-07T13:26:14;14.17;;;9.30;;
37529;SDS011;23374;52.758;6.872;2023-05-07T13:28:35;11.73;;;8.40;;
37529;SDS011;23374;52.758;6.872;2023-05-07T13:30:55;12.40;;;8.70;;
37529;SDS011;23374;52.758;6.872;2023-05-07T13:33:16;11.83;;;8.27;;
37529;SDS011;23374;52.758;6.872;2023-05-07T13:35:36;9.80;;;7.77;;
37529;SDS011;23374;52.758;6.872;2023-05-07T13:37:58;11.67;;;7.93;;
37529;SDS011;23374;52.758;6.872;2023-05-07T13:40:18;12.07;;;9.03;;
37529;SDS011;23374;52.758;6.872;2023-05-07T13:42:39;13.27;;;8.60;;
37529;SDS011;23374;52.758;6.872;2023-05-07T13:44:59;10.83;;;8.50;;
37529;SDS011;23374;52.758;6.872;2023-05-07T13:47:20;12.33;;;6.93;;
37529;SDS011;23374;52.758;6.872;2023-05-07T13:49:40;11.50;;;8.17;;
37529;SDS011;23374;52.758;6.872;2023-05-07T13:52:01;11.73;;;7.87;;
37529;SDS011;23374;52.758;6.872;2023-05-07T13:54:22;12.87;;;8.83;;
37529;SDS011;23374;52.758;6.872;2023-05-07T13:56:42;11.93;;;8.70;;
37529;SDS011;23374;52.758;6.872;2023-05-07T13:59:02;10.87;;;7.63;;
37529;SDS011;23374;52.758;6.872;2023-05-07T14:01:23;12.83;;;8.20;;
37529;SDS011;23374;52.758;6.872;2023-05-07T14:03:43;11.80;;;7.90;;
37529;SDS011;23374;52.758;6.872;2023-05-07T14:06:04;10.87;;;7.77;;
37529;SDS011;23374;52.758;6.872;2023-05-07T14:08:24;14.73;;;8.50;;
37529;SDS011;23374;52.758;6.872;2023-05-07T14:10:45;12.17;;;8.47;;